WI39 weather

Clintonville Community Hospital Heliport
Clintonville, Wisconsin, United States

Public forecast

Using degrees Fahrenheit for public forecast. Weather courtesy of forecast.io.

METAR (pilot weather report)

Closest report is Clintonville Municipal Airport, 1.3 nm (2.4 km) ESE. Retrieved 2019/08/21 03:35 UTC (23 minutes ago):

KCLI 210335Z AUTO 28003KT 10SM OVC080 22/18 A2994 RMK AO2 T02210175

TAF (pilot weather forecast)

Forecast is more than 12 hours old.

Closest forecast is Appleton International Airport, 24.3 nm (44.9 km) SSE. Retrieved 2019/08/20 00:33 UTC (1 day ago):

TAF KATW 202329Z 2100/2124 22005KT P6SM SCT030 FM210800 33005KT P6SM BKN030 FM211400 32010G17KT P6SM SCT035